Terminal Aerodrome Forecast
Issued by NWS

Home | Current Version | Previous Version | Text Only | Print | Product List | Glossary On
Versions: 1 2 3 4 5 6 7 8 9 10 11 12 13 14 15 16 17 18 19 20 21 22 23 24
000
FTPA31 PHFO 051100
TAFOGG
TAF
PHOG 051133Z 0512/0612 04009KT P6SM FEW030 SCT060
     FM052000 04018G26KT P6SM FEW035 SCT060
     FM060600 04008G14KT P6SM FEW035 SCT060
     FM060900 04008KT P6SM FEW035 SCT060
      AMD LTD TO VIS AND WIND TIL 051600=

USA.gov is the U.S. government's official web portal to all federal, state and local government web resources and services.